Time;durP1;ratioP1;P1;durP2;ratioP2;P2;SDS_P1;SDS_P2;PMS_P1;PMS_P2;Temp;Humidity;BMP_temperature;BMP_pressure;BME280_temperature;BME280_humidity;BME280_pressure;Samples;Min_cycle;Max_cycle;Signal;HPM_P1;HPM_P2
2020/10/31 00:02:06;;;;;;;3.47;2.93;;;;;;;20.24;60.47;101347.61;;;;-63
2020/10/31 00:05:06;;;;;;;3.75;2.78;;;;;;;20.22;60.47;101341.15;;;;-61
2020/10/31 00:08:06;;;;;;;3.17;2.62;;;;;;;20.21;60.50;101340.00;;;;-61
2020/10/31 00:11:06;;;;;;;3.44;2.58;;;;;;;20.20;60.51;101341.68;;;;-61
2020/10/31 00:14:06;;;;;;;3.24;2.67;;;;;;;20.19;60.49;101338.42;;;;-61
2020/10/31 00:17:06;;;;;;;4.53;2.59;;;;;;;20.19;60.48;101343.27;;;;-63
2020/10/31 00:20:06;;;;;;;3.15;2.71;;;;;;;20.18;60.50;101342.13;;;;-62
2020/10/31 00:23:06;;;;;;;3.62;2.73;;;;;;;20.17;60.50;101341.04;;;;-61
2020/10/31 00:26:06;;;;;;;3.16;2.80;;;;;;;20.16;60.52;101341.69;;;;-61
2020/10/31 00:29:06;;;;;;;3.30;2.69;;;;;;;20.14;60.54;101343.53;;;;-62
2020/10/31 00:32:06;;;;;;;2.86;2.50;;;;;;;20.13;60.55;101346.13;;;;-61
2020/10/31 00:35:06;;;;;;;3.29;2.79;;;;;;;20.13;60.54;101343.44;;;;-63
2020/10/31 00:38:06;;;;;;;3.57;2.93;;;;;;;20.12;60.55;101345.52;;;;-61
2020/10/31 00:41:06;;;;;;;2.78;2.43;;;;;;;20.10;60.56;101341.83;;;;-61
2020/10/31 00:44:06;;;;;;;2.89;2.59;;;;;;;20.09;60.57;101340.92;;;;-61
2020/10/31 00:47:06;;;;;;;2.87;2.51;;;;;;;20.08;60.59;101340.48;;;;-61
2020/10/31 00:50:06;;;;;;;3.29;2.67;;;;;;;20.07;60.64;101339.67;;;;-63
2020/10/31 00:53:06;;;;;;;3.08;2.49;;;;;;;20.07;60.64;101343.17;;;;-62
2020/10/31 00:56:06;;;;;;;3.06;2.60;;;;;;;20.07;60.63;101341.95;;;;-61
2020/10/31 00:59:06;;;;;;;2.57;2.31;;;;;;;20.06;60.62;101340.77;;;;-64
2020/10/31 01:02:06;;;;;;;2.71;2.49;;;;;;;20.04;60.65;101340.50;;;;-62
2020/10/31 01:05:06;;;;;;;2.51;2.31;;;;;;;20.03;60.64;101335.28;;;;-61
2020/10/31 01:08:06;;;;;;;2.66;2.41;;;;;;;20.03;60.64;101333.00;;;;-61
2020/10/31 01:11:06;;;;;;;2.75;2.44;;;;;;;20.02;60.68;101328.01;;;;-59
2020/10/31 01:14:06;;;;;;;2.68;2.45;;;;;;;20.01;60.66;101325.89;;;;-60
2020/10/31 01:17:06;;;;;;;2.83;2.51;;;;;;;20.00;60.64;101322.92;;;;-60
2020/10/31 01:20:06;;;;;;;2.66;2.44;;;;;;;20.00;60.66;101319.91;;;;-59
2020/10/31 01:23:06;;;;;;;2.85;2.51;;;;;;;19.99;60.67;101316.58;;;;-62
2020/10/31 01:26:06;;;;;;;2.91;2.47;;;;;;;19.98;60.72;101314.84;;;;-57
2020/10/31 01:29:06;;;;;;;2.73;2.45;;;;;;;19.97;60.72;101313.05;;;;-58
2020/10/31 01:32:06;;;;;;;2.69;2.40;;;;;;;19.97;60.72;101313.36;;;;-58
2020/10/31 01:35:06;;;;;;;2.80;2.50;;;;;;;19.95;60.71;101307.23;;;;-55
2020/10/31 01:38:06;;;;;;;2.80;2.31;;;;;;;19.94;60.71;101303.81;;;;-55
2020/10/31 01:41:06;;;;;;;2.93;2.30;;;;;;;19.93;60.73;101305.56;;;;-54
2020/10/31 01:44:06;;;;;;;2.53;2.30;;;;;;;19.93;60.75;101303.20;;;;-54
2020/10/31 01:47:06;;;;;;;2.61;2.41;;;;;;;19.92;60.77;101301.17;;;;-54
2020/10/31 01:50:06;;;;;;;2.50;2.30;;;;;;;19.92;60.67;101304.06;;;;-55
2020/10/31 01:53:06;;;;;;;2.88;2.56;;;;;;;19.91;60.74;101307.97;;;;-54
2020/10/31 01:56:06;;;;;;;2.56;2.26;;;;;;;19.90;60.71;101307.45;;;;-55
2020/10/31 01:59:06;;;;;;;2.77;2.45;;;;;;;19.89;60.74;101306.06;;;;-54
2020/10/31 02:02:06;;;;;;;2.62;2.27;;;;;;;19.89;60.76;101305.73;;;;-55
2020/10/31 02:05:06;;;;;;;2.81;2.47;;;;;;;19.88;60.76;101301.26;;;;-55
2020/10/31 02:08:06;;;;;;;2.57;2.29;;;;;;;19.87;60.78;101298.45;;;;-55
2020/10/31 02:11:06;;;;;;;3.63;2.20;;;;;;;19.87;60.78;101299.67;;;;-54
2020/10/31 02:14:06;;;;;;;2.90;2.43;;;;;;;19.86;60.77;101295.61;;;;-55
2020/10/31 02:17:06;;;;;;;2.80;2.41;;;;;;;19.85;60.76;101284.19;;;;-61
2020/10/31 02:20:06;;;;;;;2.40;2.20;;;;;;;19.85;60.78;101284.02;;;;-59
2020/10/31 02:23:06;;;;;;;2.41;2.19;;;;;;;19.84;60.80;101285.23;;;;-60
2020/10/31 02:26:06;;;;;;;2.37;2.17;;;;;;;19.83;60.81;101284.15;;;;-59
2020/10/31 02:29:06;;;;;;;2.57;2.21;;;;;;;19.83;60.81;101284.31;;;;-60
2020/10/31 02:32:06;;;;;;;2.80;2.29;;;;;;;19.83;60.81;101281.63;;;;-58
2020/10/31 02:35:06;;;;;;;2.48;2.28;;;;;;;19.83;60.77;101280.00;;;;-58
2020/10/31 02:38:06;;;;;;;2.33;2.11;;;;;;;19.82;60.84;101278.98;;;;-57
2020/10/31 02:41:06;;;;;;;2.63;2.15;;;;;;;19.82;60.84;101274.76;;;;-57
2020/10/31 02:44:06;;;;;;;2.34;2.08;;;;;;;19.81;60.79;101272.48;;;;-58
2020/10/31 02:47:06;;;;;;;2.57;2.20;;;;;;;19.81;60.79;101275.24;;;;-58
2020/10/31 02:50:06;;;;;;;2.28;2.08;;;;;;;19.80;60.81;101275.48;;;;-57
2020/10/31 02:53:06;;;;;;;2.89;2.40;;;;;;;19.80;60.81;101270.93;;;;-58
2020/10/31 02:56:06;;;;;;;2.28;2.08;;;;;;;19.79;60.85;101268.63;;;;-58
2020/10/31 02:59:06;;;;;;;2.41;2.20;;;;;;;19.79;60.82;101265.86;;;;-57
2020/10/31 03:02:06;;;;;;;2.97;2.25;;;;;;;19.78;60.79;101260.73;;;;-57
2020/10/31 03:05:06;;;;;;;2.41;2.21;;;;;;;19.77;60.83;101262.48;;;;-58
2020/10/31 03:08:06;;;;;;;2.35;2.15;;;;;;;19.77;60.84;101261.27;;;;-57
2020/10/31 03:11:06;;;;;;;2.29;2.09;;;;;;;19.77;60.85;101264.52;;;;-60
2020/10/31 03:14:06;;;;;;;2.27;2.07;;;;;;;19.77;60.86;101265.16;;;;-59
2020/10/31 03:17:06;;;;;;;2.42;2.11;;;;;;;19.75;60.91;101260.25;;;;-60
2020/10/31 03:20:06;;;;;;;2.39;2.19;;;;;;;19.76;60.81;101266.88;;;;-60
2020/10/31 03:23:06;;;;;;;2.41;2.21;;;;;;;19.74;60.89;101266.91;;;;-60
2020/10/31 03:26:06;;;;;;;2.40;2.20;;;;;;;19.74;60.86;101270.25;;;;-58
2020/10/31 03:29:06;;;;;;;2.23;2.03;;;;;;;19.74;60.90;101264.23;;;;-58
2020/10/31 03:32:06;;;;;;;2.23;2.03;;;;;;;19.74;60.84;101272.94;;;;-58
2020/10/31 03:35:06;;;;;;;2.63;2.30;;;;;;;19.73;60.83;101269.16;;;;-58
2020/10/31 03:38:06;;;;;;;2.31;2.04;;;;;;;19.73;60.89;101269.16;;;;-59
2020/10/31 03:41:06;;;;;;;2.12;1.92;;;;;;;19.72;60.88;101267.94;;;;-60
2020/10/31 03:44:06;;;;;;;2.20;2.00;;;;;;;19.71;60.89;101266.60;;;;-60
2020/10/31 03:47:06;;;;;;;2.25;2.05;;;;;;;19.71;60.91;101265.70;;;;-60
2020/10/31 03:50:09;;;;;;;2.09;1.95;;;;;;;19.71;60.90;101259.44;;;;-60
2020/10/31 03:53:06;;;;;;;2.35;2.15;;;;;;;19.69;60.92;101256.45;;;;-59
2020/10/31 03:56:06;;;;;;;2.49;2.24;;;;;;;19.69;60.93;101260.30;;;;-59
2020/10/31 03:59:06;;;;;;;2.31;2.11;;;;;;;19.69;60.92;101259.21;;;;-60
2020/10/31 04:02:06;;;;;;;2.46;2.11;;;;;;;19.68;60.91;101257.34;;;;-54
2020/10/31 04:05:06;;;;;;;2.13;1.93;;;;;;;19.67;60.93;101256.69;;;;-53
2020/10/31 04:08:06;;;;;;;2.65;2.01;;;;;;;19.67;60.91;101258.64;;;;-54
2020/10/31 04:11:06;;;;;;;2.31;2.11;;;;;;;19.67;60.92;101259.17;;;;-54
2020/10/31 04:14:06;;;;;;;2.22;2.02;;;;;;;19.66;60.92;101255.59;;;;-54
2020/10/31 04:17:06;;;;;;;2.30;2.10;;;;;;;19.66;60.96;101255.27;;;;-54
2020/10/31 04:20:06;;;;;;;1.99;1.87;;;;;;;19.65;60.94;101257.78;;;;-54
2020/10/31 04:23:06;;;;;;;2.31;2.11;;;;;;;19.65;60.96;101263.61;;;;-54
2020/10/31 04:26:09;;;;;;;2.20;2.00;;;;;;;19.64;60.96;101258.64;;;;-54
2020/10/31 04:29:06;;;;;;;2.29;2.09;;;;;;;19.63;60.97;101256.61;;;;-54
2020/10/31 04:32:06;;;;;;;2.27;2.07;;;;;;;19.63;60.97;101258.86;;;;-53
2020/10/31 04:35:06;;;;;;;2.20;2.00;;;;;;;19.62;60.99;101259.02;;;;-54
2020/10/31 04:38:06;;;;;;;2.21;2.01;;;;;;;19.62;61.00;101262.42;;;;-54
2020/10/31 04:41:06;;;;;;;2.01;1.81;;;;;;;19.62;60.99;101258.03;;;;-61
2020/10/31 04:44:06;;;;;;;2.19;1.99;;;;;;;19.62;60.98;101253.97;;;;-61
2020/10/31 04:47:06;;;;;;;1.99;1.89;;;;;;;19.62;60.98;101251.78;;;;-61
2020/10/31 04:50:06;;;;;;;3.00;2.07;;;;;;;19.61;60.96;101252.15;;;;-61
2020/10/31 04:53:06;;;;;;;2.07;1.90;;;;;;;19.61;61.01;101246.30;;;;-58
2020/10/31 04:56:06;;;;;;;2.17;1.97;;;;;;;19.60;60.99;101243.77;;;;-59
2020/10/31 04:59:06;;;;;;;2.28;1.93;;;;;;;19.60;60.96;101249.55;;;;-58
2020/10/31 05:02:06;;;;;;;2.05;1.90;;;;;;;19.60;60.99;101249.79;;;;-59
2020/10/31 05:05:06;;;;;;;2.10;1.90;;;;;;;19.59;60.95;101245.72;;;;-60
2020/10/31 05:08:06;;;;;;;2.31;2.05;;;;;;;19.59;61.01;101241.73;;;;-59
2020/10/31 05:11:06;;;;;;;2.10;1.90;;;;;;;19.59;61.00;101242.67;;;;-59
2020/10/31 05:14:06;;;;;;;2.11;1.91;;;;;;;19.57;60.98;101239.18;;;;-60
2020/10/31 05:17:06;;;;;;;2.03;1.88;;;;;;;19.57;61.07;101241.45;;;;-60
2020/10/31 05:20:06;;;;;;;2.18;1.98;;;;;;;19.57;60.97;101235.48;;;;-60
2020/10/31 05:23:06;;;;;;;2.05;1.87;;;;;;;19.56;61.05;101234.50;;;;-62
2020/10/31 05:26:06;;;;;;;2.11;1.90;;;;;;;19.57;60.97;101233.53;;;;-58
2020/10/31 05:29:06;;;;;;;2.17;1.91;;;;;;;19.57;60.98;101232.56;;;;-57
2020/10/31 05:32:06;;;;;;;2.05;1.89;;;;;;;19.56;60.99;101226.13;;;;-60
2020/10/31 05:35:06;;;;;;;2.29;2.09;;;;;;;19.56;60.98;101226.45;;;;-61
2020/10/31 05:38:06;;;;;;;2.35;2.05;;;;;;;19.55;61.00;101229.59;;;;-61
2020/10/31 05:41:06;;;;;;;2.13;1.95;;;;;;;19.55;61.05;101229.79;;;;-63
2020/10/31 05:44:06;;;;;;;2.12;1.92;;;;;;;19.54;60.98;101226.91;;;;-61
2020/10/31 05:47:06;;;;;;;2.12;1.92;;;;;;;19.54;61.01;101220.24;;;;-61
2020/10/31 05:50:06;;;;;;;1.92;1.78;;;;;;;19.54;61.04;101213.41;;;;-61
2020/10/31 05:53:06;;;;;;;2.00;1.80;;;;;;;19.53;61.06;101212.11;;;;-62
2020/10/31 05:56:06;;;;;;;2.23;2.00;;;;;;;19.54;61.02;101217.88;;;;-63
2020/10/31 05:59:06;;;;;;;1.82;1.72;;;;;;;19.53;61.02;101226.50;;;;-61
2020/10/31 06:02:06;;;;;;;1.90;1.80;;;;;;;19.53;61.03;101223.86;;;;-62
2020/10/31 06:05:06;;;;;;;2.15;1.90;;;;;;;19.51;61.02;101219.06;;;;-61
2020/10/31 06:08:06;;;;;;;1.81;1.71;;;;;;;19.52;60.99;101224.27;;;;-61
2020/10/31 06:11:06;;;;;;;2.07;1.87;;;;;;;19.52;61.01;101223.70;;;;-60
2020/10/31 06:14:06;;;;;;;1.95;1.79;;;;;;;19.52;60.96;101216.70;;;;-61
2020/10/31 06:17:07;;;;;;;2.10;1.90;;;;;;;19.52;61.05;101220.13;;;;-63
2020/10/31 06:20:06;;;;;;;2.00;1.87;;;;;;;19.53;61.03;101219.15;;;;-62
2020/10/31 06:23:06;;;;;;;2.00;1.80;;;;;;;19.55;61.02;101214.18;;;;-62
2020/10/31 06:26:06;;;;;;;1.85;1.75;;;;;;;19.56;60.96;101215.80;;;;-61
2020/10/31 06:29:06;;;;;;;2.10;1.90;;;;;;;19.57;60.92;101219.83;;;;-61
2020/10/31 06:32:06;;;;;;;1.69;1.59;;;;;;;19.59;60.96;101221.00;;;;-61
2020/10/31 06:35:06;;;;;;;1.80;1.70;;;;;;;19.62;60.93;101226.81;;;;-61
2020/10/31 06:38:06;;;;;;;1.83;1.71;;;;;;;19.66;60.93;101226.64;;;;-61
2020/10/31 06:41:06;;;;;;;1.91;1.80;;;;;;;19.68;60.91;101225.38;;;;-61
2020/10/31 06:44:06;;;;;;;1.90;1.76;;;;;;;19.71;60.91;101224.72;;;;-63
2020/10/31 06:47:06;;;;;;;2.09;1.88;;;;;;;19.75;61.12;101233.81;;;;-61
2020/10/31 06:50:06;;;;;;;1.81;1.71;;;;;;;19.78;61.13;101239.98;;;;-62
2020/10/31 06:53:06;;;;;;;1.86;1.71;;;;;;;19.81;61.12;101232.30;;;;-63
2020/10/31 06:56:06;;;;;;;1.92;1.82;;;;;;;19.85;61.26;101226.52;;;;-61
2020/10/31 06:59:06;;;;;;;1.77;1.64;;;;;;;19.87;61.23;101224.92;;;;-61
2020/10/31 07:02:06;;;;;;;2.00;1.75;;;;;;;19.91;61.27;101230.52;;;;-61
2020/10/31 07:05:06;;;;;;;2.05;1.81;;;;;;;19.93;61.23;101227.63;;;;-61
2020/10/31 07:08:06;;;;;;;1.81;1.71;;;;;;;19.96;61.34;101228.48;;;;-62
2020/10/31 07:11:06;;;;;;;2.10;1.90;;;;;;;19.99;61.39;101228.62;;;;-61
2020/10/31 07:14:06;;;;;;;1.89;1.71;;;;;;;20.02;61.24;101229.39;;;;-61
2020/10/31 07:17:06;;;;;;;1.79;1.69;;;;;;;20.03;61.34;101227.88;;;;-62
2020/10/31 07:20:06;;;;;;;1.80;1.70;;;;;;;20.05;61.35;101228.80;;;;-64
2020/10/31 07:23:06;;;;;;;2.06;1.83;;;;;;;20.06;61.33;101228.89;;;;-58
2020/10/31 07:26:06;;;;;;;1.75;1.65;;;;;;;20.07;61.29;101221.44;;;;-58
2020/10/31 07:29:06;;;;;;;1.84;1.74;;;;;;;20.09;61.34;101221.06;;;;-58
2020/10/31 07:32:06;;;;;;;1.97;1.82;;;;;;;20.10;61.23;101224.23;;;;-54
2020/10/31 07:35:06;;;;;;;1.74;1.62;;;;;;;20.12;61.25;101226.22;;;;-54
2020/10/31 07:38:06;;;;;;;2.01;1.83;;;;;;;20.13;61.22;101220.64;;;;-55
2020/10/31 07:41:06;;;;;;;1.83;1.73;;;;;;;20.14;61.22;101220.97;;;;-54
2020/10/31 07:44:06;;;;;;;1.69;1.59;;;;;;;20.15;61.18;101221.05;;;;-54
2020/10/31 07:47:06;;;;;;;1.80;1.70;;;;;;;20.15;61.18;101220.59;;;;-62
2020/10/31 07:50:06;;;;;;;1.80;1.70;;;;;;;20.17;61.17;101226.94;;;;-62
2020/10/31 07:53:06;;;;;;;1.79;1.69;;;;;;;20.17;61.17;101222.25;;;;-58
2020/10/31 07:56:06;;;;;;;1.66;1.56;;;;;;;20.17;61.11;101221.84;;;;-58
2020/10/31 07:59:06;;;;;;;1.86;1.73;;;;;;;20.18;61.08;101222.73;;;;-58
2020/10/31 08:02:06;;;;;;;1.80;1.70;;;;;;;20.19;61.06;101220.58;;;;-57
2020/10/31 08:05:06;;;;;;;1.71;1.61;;;;;;;20.19;61.03;101213.81;;;;-58
2020/10/31 08:08:06;;;;;;;1.72;1.62;;;;;;;20.20;61.01;101207.95;;;;-58
2020/10/31 08:11:06;;;;;;;1.71;1.59;;;;;;;20.20;61.02;101203.80;;;;-58
2020/10/31 08:14:06;;;;;;;1.95;1.80;;;;;;;20.22;60.99;101204.33;;;;-58
2020/10/31 08:17:06;;;;;;;1.67;1.57;;;;;;;20.22;60.99;101205.71;;;;-58
2020/10/31 08:20:06;;;;;;;1.89;1.68;;;;;;;20.23;60.96;101194.72;;;;-58
2020/10/31 08:23:06;;;;;;;1.80;1.70;;;;;;;20.22;60.90;101186.17;;;;-57
2020/10/31 08:26:07;;;;;;;1.80;1.70;;;;;;;20.23;60.92;101179.67;;;;-58
2020/10/31 08:29:06;;;;;;;1.93;1.73;;;;;;;20.24;60.89;101187.02;;;;-57
2020/10/31 08:32:06;;;;;;;1.87;1.70;;;;;;;20.24;60.93;101181.65;;;;-58
2020/10/31 08:35:09;;;;;;;1.70;1.60;;;;;;;20.24;60.86;101178.88;;;;-57
2020/10/31 08:38:20;;;;;;;1.70;1.60;;;;;;;20.25;60.86;101169.03;;;;-58
2020/10/31 08:41:09;;;;;;;1.78;1.68;;;;;;;20.25;60.81;101167.81;;;;-58
2020/10/31 08:44:11;;;;;;;1.77;1.67;;;;;;;20.26;60.79;101162.06;;;;-58
2020/10/31 08:47:10;;;;;;;1.79;1.69;;;;;;;20.26;60.82;101149.20;;;;-58
2020/10/31 08:50:07;;;;;;;1.60;1.50;;;;;;;20.26;60.76;101141.96;;;;-58
2020/10/31 08:53:06;;;;;;;1.69;1.59;;;;;;;20.26;60.77;101145.70;;;;-57
2020/10/31 08:56:06;;;;;;;1.67;1.57;;;;;;;20.27;60.77;101145.46;;;;-58
2020/10/31 08:59:06;;;;;;;1.71;1.61;;;;;;;20.26;60.75;101133.66;;;;-58
2020/10/31 09:02:06;;;;;;;1.99;1.86;;;;;;;20.26;60.73;101128.45;;;;-57
2020/10/31 09:05:06;;;;;;;1.79;1.69;;;;;;;20.26;60.70;101126.98;;;;-58
2020/10/31 09:08:06;;;;;;;1.70;1.60;;;;;;;20.27;60.72;101123.56;;;;-58
2020/10/31 09:11:06;;;;;;;1.80;1.70;;;;;;;20.28;60.70;101123.67;;;;-58
2020/10/31 09:14:06;;;;;;;5.83;2.04;;;;;;;20.25;60.53;101112.33;;;;-52
2020/10/31 09:17:06;;;;;;;3.76;2.34;;;;;;;20.23;59.70;101116.27;;;;-60
2020/10/31 09:20:06;;;;;;;2.77;2.07;;;;;;;20.22;59.45;101118.46;;;;-58
2020/10/31 09:23:06;;;;;;;3.88;2.30;;;;;;;20.19;59.39;101116.23;;;;-57
2020/10/31 09:26:06;;;;;;;4.42;2.28;;;;;;;20.21;59.71;101114.36;;;;-58
2020/10/31 09:29:06;;;;;;;3.48;2.15;;;;;;;20.24;60.13;101109.38;;;;-51
2020/10/31 09:32:06;;;;;;;3.41;2.09;;;;;;;20.26;60.25;101100.29;;;;-51
2020/10/31 09:35:06;;;;;;;2.50;2.24;;;;;;;20.28;60.44;101093.39;;;;-53
2020/10/31 09:38:06;;;;;;;3.85;2.30;;;;;;;20.31;60.53;101094.48;;;;-60
2020/10/31 09:41:06;;;;;;;4.13;2.11;;;;;;;20.33;60.67;101089.30;;;;-66
2020/10/31 09:44:06;;;;;;;3.82;2.22;;;;;;;20.35;60.73;101092.25;;;;-62
2020/10/31 09:47:06;;;;;;;3.02;2.05;;;;;;;20.35;60.71;101087.77;;;;-54
2020/10/31 09:50:06;;;;;;;2.45;2.16;;;;;;;20.38;61.08;101085.72;;;;-52
2020/10/31 09:53:06;;;;;;;4.73;2.15;;;;;;;20.37;60.52;101074.45;;;;-52
2020/10/31 09:56:06;;;;;;;2.39;2.04;;;;;;;20.37;60.34;101070.55;;;;-52
2020/10/31 09:59:06;;;;;;;2.48;2.00;;;;;;;20.37;60.33;101068.42;;;;-51
2020/10/31 10:02:06;;;;;;;2.90;2.05;;;;;;;20.37;60.26;101060.70;;;;-51
2020/10/31 10:05:11;;;;;;;2.89;1.97;;;;;;;20.36;60.22;101054.27;;;;-52
2020/10/31 10:08:06;;;;;;;3.78;2.20;;;;;;;20.35;60.40;101047.56;;;;-51
2020/10/31 10:11:08;;;;;;;7.19;2.31;;;;;;;20.36;60.23;101034.13;;;;-60
2020/10/31 10:14:06;;;;;;;3.99;2.27;;;;;;;20.35;60.38;101026.23;;;;-59
2020/10/31 10:17:06;;;;;;;4.08;2.27;;;;;;;20.35;60.34;101025.74;;;;-53
2020/10/31 10:20:06;;;;;;;5.91;2.21;;;;;;;20.35;60.30;101025.66;;;;-51
2020/10/31 10:23:06;;;;;;;3.03;2.21;;;;;;;20.35;60.26;101021.03;;;;-51
2020/10/31 10:26:06;;;;;;;2.59;2.15;;;;;;;20.34;60.21;101016.87;;;;-51
2020/10/31 10:29:06;;;;;;;3.65;2.10;;;;;;;20.34;60.20;101013.45;;;;-51
2020/10/31 10:32:06;;;;;;;7.79;2.12;;;;;;;20.34;60.36;101006.30;;;;-48
2020/10/31 10:35:06;;;;;;;3.63;2.06;;;;;;;20.33;60.28;101004.80;;;;-48
2020/10/31 10:38:06;;;;;;;2.69;2.10;;;;;;;20.33;60.18;100998.78;;;;-47
2020/10/31 10:41:06;;;;;;;4.81;2.40;;;;;;;20.35;60.17;100990.02;;;;-52
2020/10/31 10:44:06;;;;;;;6.74;2.21;;;;;;;20.35;60.27;100987.97;;;;-58
2020/10/31 10:47:06;;;;;;;2.79;2.12;;;;;;;20.34;60.21;100981.80;;;;-58
2020/10/31 10:50:06;;;;;;;3.97;2.31;;;;;;;20.33;60.14;100972.81;;;;-55
2020/10/31 10:53:06;;;;;;;3.73;2.24;;;;;;;20.34;60.19;100966.58;;;;-61
2020/10/31 10:56:06;;;;;;;5.65;2.55;;;;;;;20.34;60.30;100964.38;;;;-55
2020/10/31 10:59:06;;;;;;;2.37;2.05;;;;;;;20.35;60.34;100961.19;;;;-58
2020/10/31 11:02:06;;;;;;;5.23;2.24;;;;;;;20.36;60.26;100958.20;;;;-58
2020/10/31 11:05:06;;;;;;;4.37;2.15;;;;;;;20.34;60.35;100957.86;;;;-57
2020/10/31 11:08:06;;;;;;;3.66;2.29;;;;;;;20.34;60.38;100964.05;;;;-61
2020/10/31 11:11:07;;;;;;;2.87;2.13;;;;;;;20.34;60.38;100963.23;;;;-61
2020/10/31 11:14:06;;;;;;;4.75;2.33;;;;;;;20.33;60.34;100953.52;;;;-61
2020/10/31 11:17:06;;;;;;;6.19;2.29;;;;;;;20.32;60.40;100953.20;;;;-60
2020/10/31 11:20:06;;;;;;;4.64;2.13;;;;;;;20.33;60.44;100947.01;;;;-59
2020/10/31 11:23:06;;;;;;;4.66;2.45;;;;;;;20.33;60.41;100950.34;;;;-61
2020/10/31 11:26:06;;;;;;;11.46;2.37;;;;;;;20.34;60.49;100951.84;;;;-56
2020/10/31 11:29:06;;;;;;;6.90;2.37;;;;;;;20.36;60.57;100954.79;;;;-58
2020/10/31 11:32:06;;;;;;;5.40;2.41;;;;;;;20.35;60.48;100945.73;;;;-58
2020/10/31 11:35:06;;;;;;;3.20;2.11;;;;;;;20.34;60.46;100937.84;;;;-58
2020/10/31 11:38:06;;;;;;;7.73;2.31;;;;;;;20.33;60.43;100933.83;;;;-58
2020/10/31 11:41:06;;;;;;;4.46;2.41;;;;;;;20.32;60.42;100929.84;;;;-58
2020/10/31 11:44:06;;;;;;;3.35;2.25;;;;;;;20.31;60.37;100925.73;;;;-58
2020/10/31 11:47:06;;;;;;;4.53;2.23;;;;;;;20.31;60.33;100918.58;;;;-58
2020/10/31 11:50:06;;;;;;;2.77;1.97;;;;;;;20.31;60.33;100909.38;;;;-58
2020/10/31 11:53:06;;;;;;;4.11;1.93;;;;;;;20.29;60.30;100898.70;;;;-58
2020/10/31 11:56:06;;;;;;;2.51;2.09;;;;;;;20.29;60.28;100897.48;;;;-59
2020/10/31 11:59:06;;;;;;;4.00;2.20;;;;;;;20.28;60.25;100885.68;;;;-58
2020/10/31 12:02:06;;;;;;;3.47;2.05;;;;;;;20.28;60.22;100876.16;;;;-58
2020/10/31 12:05:06;;;;;;;3.33;2.15;;;;;;;20.29;60.20;100874.12;;;;-58
2020/10/31 12:08:06;;;;;;;3.66;2.05;;;;;;;20.28;60.19;100865.73;;;;-58
2020/10/31 12:11:06;;;;;;;2.29;2.09;;;;;;;20.27;60.19;100864.60;;;;-58
2020/10/31 12:14:06;;;;;;;4.53;2.13;;;;;;;20.26;60.16;100860.34;;;;-58
2020/10/31 12:17:06;;;;;;;3.82;2.07;;;;;;;20.26;60.17;100860.02;;;;-60
2020/10/31 12:20:06;;;;;;;3.27;2.13;;;;;;;20.26;60.18;100864.91;;;;-59
2020/10/31 12:23:06;;;;;;;2.41;1.93;;;;;;;20.25;60.14;100862.14;;;;-60
2020/10/31 12:26:06;;;;;;;2.47;1.99;;;;;;;20.25;60.13;100856.77;;;;-58
2020/10/31 12:29:06;;;;;;;2.61;1.91;;;;;;;20.25;60.12;100851.20;;;;-58
2020/10/31 12:32:06;;;;;;;2.87;1.91;;;;;;;20.23;60.13;100839.50;;;;-65
2020/10/31 12:35:06;;;;;;;2.61;2.22;;;;;;;20.24;60.12;100829.48;;;;-64
2020/10/31 12:38:06;;;;;;;3.21;1.89;;;;;;;20.23;60.09;100821.56;;;;-63
2020/10/31 12:41:06;;;;;;;3.75;1.96;;;;;;;20.22;60.08;100813.02;;;;-59
2020/10/31 12:44:06;;;;;;;2.15;1.95;;;;;;;20.23;60.04;100819.05;;;;-60
2020/10/31 12:47:06;;;;;;;2.55;1.91;;;;;;;20.21;60.05;100813.59;;;;-59
2020/10/31 12:50:06;;;;;;;2.95;1.98;;;;;;;20.21;60.06;100808.06;;;;-57
2020/10/31 12:53:06;;;;;;;3.18;1.81;;;;;;;20.19;60.12;100810.30;;;;-54
2020/10/31 12:56:07;;;;;;;2.41;1.79;;;;;;;20.19;60.14;100817.53;;;;-54
2020/10/31 12:59:06;;;;;;;3.33;2.09;;;;;;;20.19;60.18;100822.70;;;;-60
2020/10/31 13:02:07;;;;;;;2.87;1.97;;;;;;;20.19;60.19;100811.77;;;;-52
2020/10/31 13:05:06;;;;;;;3.75;1.97;;;;;;;20.19;60.16;100797.36;;;;-60
2020/10/31 13:08:06;;;;;;;3.37;2.07;;;;;;;20.18;60.17;100794.75;;;;-53
2020/10/31 13:11:06;;;;;;;2.95;1.90;;;;;;;20.18;60.17;100787.19;;;;-54
2020/10/31 13:14:06;;;;;;;3.00;2.01;;;;;;;20.18;60.13;100783.77;;;;-59
2020/10/31 13:17:06;;;;;;;2.74;2.11;;;;;;;20.18;60.15;100786.70;;;;-60
2020/10/31 13:20:06;;;;;;;3.75;1.93;;;;;;;20.18;60.16;100787.52;;;;-60
2020/10/31 13:23:06;;;;;;;3.10;2.03;;;;;;;20.17;60.15;100788.17;;;;-60
2020/10/31 13:26:06;;;;;;;2.13;1.93;;;;;;;20.16;60.14;100783.51;;;;-60
2020/10/31 13:29:06;;;;;;;2.15;1.93;;;;;;;20.17;60.13;100777.08;;;;-60
2020/10/31 13:32:06;;;;;;;3.61;2.07;;;;;;;20.17;60.14;100780.98;;;;-60
2020/10/31 13:35:06;;;;;;;3.03;1.98;;;;;;;20.14;60.13;100783.25;;;;-59
2020/10/31 13:38:06;;;;;;;2.44;1.81;;;;;;;20.15;60.17;100782.46;;;;-53
2020/10/31 13:41:06;;;;;;;9.49;2.29;;;;;;;20.14;60.37;100778.20;;;;-55
2020/10/31 13:44:06;;;;;;;6.51;1.93;;;;;;;20.16;60.18;100777.65;;;;-51
2020/10/31 13:47:06;;;;;;;6.42;2.17;;;;;;;20.16;60.43;100769.52;;;;-61
2020/10/31 13:50:06;;;;;;;3.95;2.05;;;;;;;20.16;60.41;100765.28;;;;-50
2020/10/31 13:53:06;;;;;;;3.89;1.97;;;;;;;20.16;60.36;100753.89;;;;-50
2020/10/31 13:56:06;;;;;;;4.40;1.98;;;;;;;20.17;60.42;100743.23;;;;-60
2020/10/31 13:59:06;;;;;;;4.29;1.91;;;;;;;20.16;60.45;100734.28;;;;-60
2020/10/31 14:02:06;;;;;;;3.65;2.06;;;;;;;20.16;60.38;100736.97;;;;-54
2020/10/31 14:05:06;;;;;;;2.61;2.02;;;;;;;20.17;60.41;100732.00;;;;-60
2020/10/31 14:08:06;;;;;;;10.38;2.13;;;;;;;20.16;60.60;100726.70;;;;-58
2020/10/31 14:11:06;;;;;;;3.85;2.15;;;;;;;20.17;60.57;100728.28;;;;-55
2020/10/31 14:14:07;;;;;;;2.86;1.94;;;;;;;20.17;60.49;100730.12;;;;-51
2020/10/31 14:17:06;;;;;;;4.78;1.88;;;;;;;20.18;60.50;100738.77;;;;-53
2020/10/31 14:20:06;;;;;;;3.16;2.09;;;;;;;20.18;60.57;100743.41;;;;-56
2020/10/31 14:23:06;;;;;;;2.83;2.01;;;;;;;20.18;60.50;100746.91;;;;-55
2020/10/31 14:26:06;;;;;;;4.65;1.93;;;;;;;20.19;60.45;100746.02;;;;-58
2020/10/31 14:29:06;;;;;;;2.66;2.29;;;;;;;20.18;60.45;100745.77;;;;-54
2020/10/31 14:32:06;;;;;;;2.91;2.01;;;;;;;20.19;60.42;100750.97;;;;-56
2020/10/31 14:35:06;;;;;;;3.07;2.10;;;;;;;20.19;60.39;100746.50;;;;-49
2020/10/31 14:38:06;;;;;;;3.18;2.11;;;;;;;20.19;60.34;100749.30;;;;-51
2020/10/31 14:41:06;;;;;;;3.94;2.17;;;;;;;20.19;60.31;100742.30;;;;-48
2020/10/31 14:44:08;;;;;;;2.72;2.07;;;;;;;20.19;60.25;100739.04;;;;-49
2020/10/31 14:47:06;;;;;;;4.76;2.30;;;;;;;20.20;60.26;100738.79;;;;-50
2020/10/31 14:50:06;;;;;;;2.81;2.21;;;;;;;20.19;60.36;100738.36;;;;-51
2020/10/31 14:53:06;;;;;;;4.24;2.27;;;;;;;20.17;60.34;100739.52;;;;-51
2020/10/31 14:56:06;;;;;;;3.21;2.05;;;;;;;20.17;60.38;100743.98;;;;-51
2020/10/31 14:59:06;;;;;;;4.13;2.33;;;;;;;20.16;60.34;100743.31;;;;-51
2020/10/31 15:02:06;;;;;;;2.57;2.00;;;;;;;20.16;60.33;100746.25;;;;-52
2020/10/31 15:05:06;;;;;;;2.47;2.17;;;;;;;20.15;60.37;100749.75;;;;-52
2020/10/31 15:08:06;;;;;;;2.53;2.15;;;;;;;20.14;60.36;100751.19;;;;-51
2020/10/31 15:11:06;;;;;;;2.70;2.13;;;;;;;20.13;60.35;100749.97;;;;-50
2020/10/31 15:14:06;;;;;;;4.04;2.17;;;;;;;20.12;60.37;100747.92;;;;-51
2020/10/31 15:17:06;;;;;;;2.93;2.03;;;;;;;20.12;60.38;100741.41;;;;-51
2020/10/31 15:20:06;;;;;;;2.39;1.98;;;;;;;20.11;60.39;100736.37;;;;-52
2020/10/31 15:23:06;;;;;;;2.67;2.05;;;;;;;20.10;60.37;100732.52;;;;-51
2020/10/31 15:26:06;;;;;;;3.00;2.07;;;;;;;20.09;60.36;100728.45;;;;-51
2020/10/31 15:29:06;;;;;;;2.92;2.21;;;;;;;20.08;60.38;100731.36;;;;-51
2020/10/31 15:32:06;;;;;;;3.73;2.02;;;;;;;20.09;60.40;100740.98;;;;-51
2020/10/31 15:35:06;;;;;;;3.39;1.97;;;;;;;20.08;60.56;100732.67;;;;-56
2020/10/31 15:38:06;;;;;;;3.94;2.05;;;;;;;20.09;60.71;100736.84;;;;-52
2020/10/31 15:41:06;;;;;;;2.83;2.12;;;;;;;20.10;60.81;100740.09;;;;-50
2020/10/31 15:44:06;;;;;;;3.25;2.11;;;;;;;20.11;60.78;100738.30;;;;-49
2020/10/31 15:47:06;;;;;;;2.73;2.01;;;;;;;20.12;60.85;100734.09;;;;-60
2020/10/31 15:50:06;;;;;;;2.45;2.01;;;;;;;20.13;60.91;100725.97;;;;-54
2020/10/31 15:53:06;;;;;;;3.28;2.01;;;;;;;20.14;60.91;100725.56;;;;-59
2020/10/31 15:56:06;;;;;;;2.20;1.98;;;;;;;20.15;60.96;100723.52;;;;-52
2020/10/31 15:59:06;;;;;;;3.26;1.82;;;;;;;20.16;60.89;100720.45;;;;-54
2020/10/31 16:02:06;;;;;;;2.12;1.89;;;;;;;20.17;60.88;100722.75;;;;-61
2020/10/31 16:05:06;;;;;;;2.63;2.07;;;;;;;20.17;60.93;100721.77;;;;-59
2020/10/31 16:08:06;;;;;;;2.74;2.02;;;;;;;20.18;60.93;100721.93;;;;-57
2020/10/31 16:11:06;;;;;;;2.12;1.92;;;;;;;20.17;61.02;100719.79;;;;-58
2020/10/31 16:14:06;;;;;;;2.53;1.97;;;;;;;20.17;61.07;100722.27;;;;-54
2020/10/31 16:17:06;;;;;;;4.41;2.29;;;;;;;20.16;61.50;100724.27;;;;-59
2020/10/31 16:20:06;;;;;;;5.93;2.15;;;;;;;20.18;61.37;100712.57;;;;-56
2020/10/31 16:23:06;;;;;;;4.15;2.12;;;;;;;20.18;61.28;100711.67;;;;-57
2020/10/31 16:26:06;;;;;;;5.71;2.11;;;;;;;20.19;61.28;100718.83;;;;-56
2020/10/31 16:29:06;;;;;;;4.52;2.20;;;;;;;20.19;61.27;100731.14;;;;-56
2020/10/31 16:32:06;;;;;;;4.26;2.38;;;;;;;20.21;61.28;100731.14;;;;-60
2020/10/31 16:35:06;;;;;;;3.65;2.16;;;;;;;20.20;61.27;100727.16;;;;-53
2020/10/31 16:38:06;;;;;;;6.51;2.11;;;;;;;20.20;61.28;100731.47;;;;-55
2020/10/31 16:41:06;;;;;;;2.80;1.95;;;;;;;20.21;61.29;100734.55;;;;-49
2020/10/31 16:44:06;;;;;;;4.19;2.01;;;;;;;20.21;61.22;100727.23;;;;-50